createdAt,value
2022-12-18T00:02:02.620Z,62.02
2022-12-18T00:22:20.342Z,61.62
2022-12-18T00:32:23.406Z,61.22
2022-12-18T00:42:45.504Z,62.33
2022-12-18T00:52:48.950Z,61.97
2022-12-18T01:02:53.548Z,62.15
2022-12-18T01:12:57.884Z,62.51
2022-12-18T01:23:02.386Z,62.26
2022-12-18T01:33:06.811Z,62.79
2022-12-18T01:43:11.813Z,62.06
2022-12-18T01:53:17.684Z,63.89
2022-12-18T02:03:22.907Z,61.74
2022-12-18T02:13:32.710Z,61.99
2022-12-18T02:23:47.999Z,62.32
2022-12-18T02:33:53.776Z,62.34
2022-12-18T02:43:59.247Z,61.54
2022-12-18T02:54:08.403Z,62.27
2022-12-18T03:04:14.758Z,61.85
2022-12-18T03:14:19.786Z,61.97
2022-12-18T03:24:23.336Z,61.77
2022-12-18T03:34:32.152Z,62.57
2022-12-18T03:44:38.855Z,61.81
2022-12-18T03:54:43.867Z,62.30
2022-12-18T04:04:47.656Z,61.48
2022-12-18T04:14:52.079Z,61.55
2022-12-18T04:24:55.207Z,61.50
2022-12-18T04:34:59.725Z,63.25
2022-12-18T04:45:02.850Z,61.55
2022-12-18T04:55:08.080Z,61.38
2022-12-18T05:05:11.371Z,62.31
2022-12-18T05:15:15.928Z,62.51
2022-12-18T05:25:19.316Z,61.81
2022-12-18T05:35:23.865Z,61.32
2022-12-18T05:45:26.995Z,60.98
2022-12-18T05:55:31.519Z,60.86
2022-12-18T06:05:37.219Z,60.66
2022-12-18T06:15:41.704Z,61.40
2022-12-18T06:25:44.958Z,61.24
2022-12-18T06:35:49.570Z,60.80
2022-12-18T06:45:53.959Z,62.12
2022-12-18T06:56:09.226Z,61.04
2022-12-18T07:06:17.097Z,61.41
2022-12-18T07:16:25.730Z,61.44
2022-12-18T07:26:29.172Z,60.56
2022-12-18T07:36:34.112Z,58.53
2022-12-18T07:46:37.196Z,59.57
2022-12-18T07:56:41.691Z,58.96
2022-12-18T08:06:47.712Z,59.17
2022-12-18T08:16:53.025Z,60.06
2022-12-18T08:27:21.189Z,61.06
2022-12-18T08:37:22.667Z,61.90
2022-12-18T08:47:26.958Z,61.06
2022-12-18T08:57:31.543Z,60.96
2022-12-18T09:07:34.857Z,60.89
2022-12-18T09:17:39.376Z,59.86
2022-12-18T09:27:42.435Z,60.26
2022-12-18T09:37:47.017Z,59.83
2022-12-18T10:00:56.443Z,55.42
2022-12-18T10:11:02.010Z,55.42
2022-12-18T10:21:11.771Z,55.85
2022-12-18T10:31:17.890Z,59.84
2022-12-18T10:54:18.919Z,50.87
2022-12-18T11:20:35.630Z,50.66
2022-12-18T11:43:27.765Z,49.80
2022-12-18T11:53:32.538Z,49.80
2022-12-18T12:04:04.107Z,51.12
2022-12-18T12:14:17.849Z,53.07
2022-12-18T12:24:31.721Z,51.66
2022-12-18T12:34:39.214Z,52.34
2022-12-18T12:44:52.765Z,50.28
2022-12-18T12:54:59.028Z,49.33
2022-12-18T13:05:11.739Z,49.47
2022-12-18T13:15:21.681Z,47.80
2022-12-18T13:25:37.351Z,48.60
2022-12-18T13:35:41.792Z,49.19
2022-12-18T13:45:48.187Z,49.30
2022-12-18T13:55:51.759Z,50.76
2022-12-18T14:06:02.805Z,51.25
2022-12-18T14:16:08.416Z,51.48
2022-12-18T14:26:25.502Z,51.64
2022-12-18T14:36:30.277Z,52.17
2022-12-18T14:46:38.156Z,52.58
2022-12-18T14:56:46.466Z,54.03
2022-12-18T15:06:51.001Z,54.79
2022-12-18T15:16:55.657Z,55.91
2022-12-18T15:27:00.366Z,56.78
2022-12-18T15:37:04.004Z,56.92
2022-12-18T15:47:13.423Z,58.01
2022-12-18T15:57:25.762Z,58.58
2022-12-18T16:07:30.863Z,59.15
2022-12-18T16:17:34.758Z,59.79
2022-12-18T16:27:39.441Z,59.72
2022-12-18T16:37:43.730Z,60.20
2022-12-18T16:47:48.568Z,59.87
2022-12-18T16:57:51.730Z,60.36
2022-12-18T17:07:56.712Z,60.01
2022-12-18T17:18:00.209Z,60.67
2022-12-18T17:28:05.366Z,60.73
2022-12-18T17:38:10.196Z,60.43
2022-12-18T17:48:15.375Z,60.27
2022-12-18T17:58:19.035Z,60.52
2022-12-18T18:08:24.234Z,60.85
2022-12-18T18:18:27.661Z,61.29
2022-12-18T18:28:32.446Z,61.35
2022-12-18T18:38:35.966Z,61.56
2022-12-18T18:48:40.757Z,62.32
2022-12-18T18:58:47.071Z,61.44
2022-12-18T19:08:52.751Z,61.10
2022-12-18T19:19:01.775Z,61.89
2022-12-18T19:29:09.823Z,61.00
2022-12-18T19:39:15.152Z,61.10
2022-12-18T19:49:27.782Z,61.13
2022-12-18T19:59:31.096Z,60.84
2022-12-18T20:09:36.857Z,60.75
2022-12-18T20:19:40.539Z,61.03
2022-12-18T20:29:45.201Z,61.01
2022-12-18T20:39:48.995Z,62.05
2022-12-18T20:49:54.191Z,62.32
2022-12-18T20:59:57.514Z,63.81
2022-12-18T21:10:08.110Z,64.28
2022-12-18T21:20:15.715Z,63.82
2022-12-18T21:30:22.712Z,65.35
2022-12-18T21:40:26.467Z,65.59
2022-12-18T21:50:31.191Z,66.73
2022-12-18T22:00:34.311Z,67.90
2022-12-18T22:10:39.132Z,66.98
2022-12-18T22:20:42.565Z,67.26
2022-12-18T22:30:47.099Z,66.69
2022-12-18T22:40:50.235Z,66.46
2022-12-18T22:50:59.353Z,66.12
2022-12-18T23:01:03.269Z,65.69
2022-12-18T23:11:07.983Z,65.39
2022-12-18T23:21:13.993Z,65.24
2022-12-18T23:31:20.698Z,65.32
2022-12-18T23:41:26.323Z,65.64
2022-12-18T23:51:31.581Z,65.52
